createdAt,value
2018-05-02T00:01:24.575Z,57.13
2018-05-02T00:03:50.075Z,56.52
2018-05-02T00:06:16.129Z,56.32
2018-05-02T00:08:41.753Z,56.57
2018-05-02T00:11:07.391Z,57.31
2018-05-02T00:13:33.640Z,56.77
2018-05-02T00:15:59.156Z,57.50
2018-05-02T00:18:24.736Z,57.43
2018-05-02T00:20:51.110Z,57.04
2018-05-02T00:23:16.727Z,57.79
2018-05-02T00:25:43.401Z,57.08
2018-05-02T00:28:09.533Z,57.38
2018-05-02T00:30:35.162Z,57.23
2018-05-02T00:33:00.731Z,57.10
2018-05-02T00:35:26.731Z,56.84
2018-05-02T00:37:52.239Z,57.46
2018-05-02T00:40:18.149Z,57.52
2018-05-02T00:42:44.212Z,56.17
2018-05-02T00:45:09.768Z,56.38
2018-05-02T00:47:35.280Z,56.67
2018-05-02T00:50:01.445Z,56.15
2018-05-02T00:52:26.965Z,56.36
2018-05-02T00:54:53.066Z,56.55
2018-05-02T00:57:18.604Z,56.75
2018-05-02T00:59:44.506Z,56.83
2018-05-02T01:02:10.084Z,57.86
2018-05-02T01:04:35.616Z,57.65
2018-05-02T01:07:01.676Z,57.45
2018-05-02T01:09:27.204Z,57.76
2018-05-02T01:11:52.780Z,57.93
2018-05-02T01:14:18.703Z,57.32
2018-05-02T01:16:44.251Z,57.42
2018-05-02T01:19:09.850Z,58.19
2018-05-02T05:40:28.764Z,53.24
2018-05-02T05:42:54.409Z,57.49
2018-05-02T05:45:19.988Z,59.46
2018-05-02T05:47:46.197Z,59.41
2018-05-02T05:50:13.149Z,59.29
2018-05-02T05:52:38.731Z,59.46
2018-05-02T05:55:04.915Z,58.85
2018-05-02T05:57:30.578Z,59.73
2018-05-02T05:59:56.146Z,59.76
2018-05-02T06:02:22.429Z,59.54
2018-05-02T06:04:48.078Z,58.63
2018-05-02T06:07:13.662Z,58.96
2018-05-02T06:09:39.343Z,58.74
2018-05-02T06:12:04.903Z,59.10
2018-05-02T06:14:30.538Z,58.61
2018-05-02T06:16:56.628Z,58.33
2018-05-02T06:19:22.301Z,58.19
2018-05-02T06:21:48.163Z,57.60
2018-05-02T06:24:13.740Z,57.37
2018-05-02T06:26:39.395Z,56.03
2018-05-02T06:29:05.169Z,56.59
2018-05-02T06:31:30.796Z,56.60
2018-05-02T06:33:56.431Z,56.93
2018-05-02T06:36:22.156Z,57.45
2018-05-02T06:38:47.745Z,57.37
2018-05-02T06:41:13.574Z,57.04
2018-05-02T06:43:39.341Z,56.96
2018-05-02T06:46:04.942Z,56.85
2018-05-02T06:48:30.523Z,56.83
2018-05-02T06:50:56.714Z,56.99
2018-05-02T06:53:22.288Z,56.81
2018-05-02T06:55:47.837Z,56.50
2018-05-02T06:58:13.665Z,56.78
2018-05-02T07:00:39.441Z,56.65
2018-05-02T07:03:05.054Z,56.20
2018-05-02T07:05:30.903Z,57.45
2018-05-02T07:07:56.476Z,56.46
2018-05-02T07:10:22.149Z,56.21
2018-05-02T07:12:47.936Z,55.65
2018-05-02T07:15:13.493Z,55.27
2018-05-02T07:17:39.153Z,55.62
2018-05-02T07:20:04.960Z,55.56
2018-05-02T07:22:30.853Z,54.76
2018-05-02T07:24:56.435Z,55.32
2018-05-02T07:27:22.304Z,55.14
2018-05-02T07:29:47.928Z,54.53
2018-05-02T07:32:13.487Z,53.30
2018-05-02T07:34:39.537Z,53.33
2018-05-02T07:37:05.464Z,54.17
2018-05-02T07:39:31.083Z,54.10
2018-05-02T07:41:56.929Z,53.79
2018-05-02T07:44:22.482Z,53.55
2018-05-02T07:46:48.093Z,53.89
2018-05-02T07:49:13.911Z,53.62
2018-05-02T07:51:39.475Z,53.27
2018-05-02T07:54:05.029Z,52.85
2018-05-02T07:56:30.869Z,53.07
2018-05-02T07:58:56.683Z,52.97
2018-05-02T08:01:22.239Z,51.65
2018-05-02T08:03:48.016Z,51.65
2018-05-02T08:06:13.866Z,52.21
2018-05-02T08:08:39.469Z,51.33
2018-05-02T08:11:05.403Z,51.90
2018-05-02T08:13:30.969Z,50.99
2018-05-02T08:15:56.532Z,50.74
2018-05-02T08:18:22.328Z,50.91
2018-05-02T08:20:47.964Z,50.74
2018-05-02T08:23:13.716Z,49.89
2018-05-02T08:25:39.531Z,49.88
2018-05-02T08:28:06.566Z,49.66
2018-05-02T08:30:32.161Z,49.92
2018-05-02T08:32:58.000Z,49.96
2018-05-02T08:35:23.496Z,49.17
2018-05-02T08:37:49.109Z,48.87
2018-05-02T08:40:14.827Z,48.36
2018-05-02T08:42:40.406Z,48.33
2018-05-02T08:45:05.963Z,48.92
2018-05-02T08:47:31.813Z,48.63
2018-05-02T08:49:57.474Z,49.34
2018-05-02T08:52:23.307Z,48.12
2018-05-02T08:54:49.136Z,48.76
2018-05-02T08:57:14.745Z,48.76
2018-05-02T08:59:40.323Z,48.63
2018-05-02T09:02:06.069Z,48.23
2018-05-02T09:04:31.707Z,48.33
2018-05-02T09:06:57.265Z,47.69
2018-05-02T09:09:23.097Z,47.81
2018-05-02T09:11:48.926Z,49.03
2018-05-02T09:14:14.507Z,48.22
2018-05-02T09:16:40.358Z,48.29
2018-05-02T09:19:05.930Z,48.43
2018-05-02T09:21:31.553Z,48.45
2018-05-02T09:23:57.301Z,48.85
2018-05-02T09:26:24.258Z,48.47
2018-05-02T09:28:49.821Z,47.76
2018-05-02T09:31:15.612Z,47.18
2018-05-02T09:33:41.413Z,47.19
2018-05-02T09:36:06.981Z,47.08
2018-05-02T09:38:32.889Z,46.61
2018-05-02T09:40:58.434Z,46.84
2018-05-02T09:43:24.167Z,46.47
2018-05-02T09:45:49.780Z,47.15
2018-05-02T09:48:15.346Z,47.23
2018-05-02T09:50:41.196Z,47.23
2018-05-02T09:53:06.761Z,47.09
2018-05-02T09:55:32.324Z,46.54
2018-05-02T09:57:58.120Z,47.24
2018-05-02T10:04:04.949Z,46.54
2018-05-02T10:06:30.521Z,46.76
2018-05-02T10:08:56.087Z,46.93
2018-05-02T10:11:21.882Z,45.71
2018-05-02T10:13:47.534Z,45.14
2018-05-02T10:16:13.115Z,45.26
2018-05-02T10:18:38.881Z,45.33
2018-05-02T10:21:04.504Z,44.95
2018-05-02T10:23:30.302Z,45.37
2018-05-02T10:25:56.035Z,44.70
2018-05-02T10:28:21.645Z,44.75
2018-05-02T10:30:47.203Z,44.51
2018-05-02T10:33:12.968Z,44.55
2018-05-02T10:35:38.577Z,43.36
2018-05-02T10:38:04.132Z,43.63
2018-05-02T10:40:29.964Z,44.42
2018-05-02T10:42:55.727Z,45.16
2018-05-02T10:45:21.305Z,44.37
2018-05-02T10:47:47.057Z,43.88
2018-05-02T10:52:56.574Z,44.63
2018-05-02T10:55:22.194Z,44.09
2018-05-02T10:57:47.808Z,43.50
2018-05-02T11:00:13.726Z,43.37
2018-05-02T11:02:39.349Z,43.12
2018-05-02T11:05:05.040Z,42.36
2018-05-02T11:07:30.906Z,42.69
2018-05-02T11:09:56.655Z,42.01
2018-05-02T11:12:22.494Z,41.84
2018-05-02T11:14:48.358Z,42.29
2018-05-02T11:17:14.057Z,42.18
2018-05-02T11:19:39.674Z,42.14
2018-05-02T11:22:05.635Z,42.69
2018-05-02T11:24:31.226Z,42.81
2018-05-02T11:26:57.063Z,41.65
2018-05-02T11:29:22.996Z,42.96
2018-05-02T11:31:48.604Z,42.23
2018-05-02T11:34:14.249Z,41.37
2018-05-02T11:36:40.208Z,40.96
2018-05-02T11:39:05.827Z,40.84
2018-05-02T11:41:31.642Z,40.35
2018-05-02T11:43:57.261Z,40.43
2018-05-02T11:46:23.172Z,40.67
2018-05-02T11:48:48.786Z,40.24
2018-05-02T11:51:14.496Z,39.84
2018-05-02T11:53:40.292Z,39.37
2018-05-02T11:56:05.999Z,39.56
2018-05-02T11:58:31.624Z,39.39
2018-05-02T12:00:57.474Z,39.48
2018-05-02T12:03:23.106Z,40.21
2018-05-02T12:05:48.927Z,42.32
2018-05-02T12:08:14.703Z,43.08
2018-05-02T12:10:40.354Z,43.21
2018-05-02T12:13:06.045Z,43.50
2018-05-02T12:15:31.848Z,42.71
2018-05-02T12:17:57.762Z,42.71
2018-05-02T12:20:23.404Z,42.41
2018-05-02T12:22:49.158Z,42.66
2018-05-02T12:25:14.777Z,43.61
2018-05-02T12:27:40.762Z,43.90
2018-05-02T12:30:06.529Z,44.11
2018-05-02T12:32:32.124Z,43.63
2018-05-02T12:34:57.744Z,42.68
2018-05-02T12:37:23.712Z,42.94
2018-05-02T12:39:49.330Z,42.80
2018-05-02T12:42:14.949Z,42.83
2018-05-02T12:44:40.807Z,41.54
2018-05-02T12:47:06.501Z,40.94
2018-05-02T12:49:32.450Z,42.11
2018-05-02T12:51:58.316Z,41.31
2018-05-02T12:54:23.941Z,40.42
2018-05-02T12:56:49.570Z,40.73
2018-05-02T12:59:15.359Z,41.33
2018-05-02T13:01:41.192Z,40.98
2018-05-02T13:04:07.217Z,40.24
2018-05-02T13:06:33.340Z,39.91
2018-05-02T13:08:58.940Z,39.23
2018-05-02T13:11:24.566Z,38.51
2018-05-02T13:13:50.452Z,38.52
2018-05-02T13:16:16.387Z,37.75
2018-05-02T13:18:42.030Z,38.03
2018-05-02T13:21:07.854Z,37.87
2018-05-02T13:23:33.467Z,38.05
2018-05-02T13:25:59.165Z,37.90
2018-05-02T13:28:25.027Z,37.55
2018-05-02T13:30:50.659Z,37.23
2018-05-02T13:33:16.358Z,38.09
2018-05-02T13:35:42.172Z,39.38
2018-05-02T13:38:07.854Z,37.60
2018-05-02T13:40:33.469Z,37.89
2018-05-02T13:42:59.328Z,36.87
2018-05-02T13:45:25.218Z,36.33
2018-05-02T13:47:50.835Z,36.14
2018-05-02T13:50:16.559Z,36.33
2018-05-02T13:52:42.317Z,36.19
2018-05-02T13:55:08.351Z,35.95
2018-05-02T13:57:33.961Z,35.58
2018-05-02T13:59:59.594Z,35.04
2018-05-02T14:02:25.417Z,36.07
2018-05-02T14:04:51.111Z,35.57
2018-05-02T14:07:16.670Z,36.89
2018-05-02T14:09:42.468Z,35.43
2018-05-02T14:12:08.040Z,34.42
2018-05-02T14:14:33.650Z,34.58
2018-05-02T14:16:59.504Z,34.48
2018-05-02T14:19:25.071Z,33.93
2018-05-02T14:21:50.654Z,34.07
2018-05-02T14:24:16.415Z,33.61
2018-05-02T14:26:41.990Z,33.22
2018-05-02T14:29:07.565Z,32.94
2018-05-02T14:31:33.919Z,32.79
2018-05-02T14:33:59.747Z,32.76
2018-05-02T14:36:25.395Z,33.61
2018-05-02T14:38:51.326Z,33.46
2018-05-02T14:41:16.893Z,33.58
2018-05-02T14:43:42.705Z,32.68
2018-05-02T14:46:08.489Z,32.69
2018-05-02T14:48:34.084Z,33.63
2018-05-02T14:50:59.713Z,34.34
2018-05-02T14:53:25.521Z,34.74
2018-05-02T14:55:51.096Z,35.09
2018-05-02T14:58:16.668Z,34.20
2018-05-02T15:00:42.526Z,34.19
2018-05-02T15:03:08.287Z,34.06
2018-05-02T15:05:33.869Z,34.72
2018-05-02T15:07:59.737Z,34.54
2018-05-02T15:10:25.302Z,34.73
2018-05-02T15:12:50.888Z,34.32
2018-05-02T15:15:16.620Z,34.87
2018-05-02T15:17:42.242Z,35.28
2018-05-02T15:20:07.858Z,34.85
2018-05-02T15:22:33.597Z,35.46
2018-05-02T15:24:59.333Z,34.86
2018-05-02T15:27:24.906Z,34.53
2018-05-02T15:29:50.750Z,34.60
2018-05-02T15:32:16.375Z,33.70
2018-05-02T15:34:41.994Z,33.24
2018-05-02T15:37:07.817Z,32.75
2018-05-02T15:39:33.411Z,32.62
2018-05-02T15:41:59.073Z,32.46
2018-05-02T15:44:24.919Z,32.64
2018-05-02T15:46:50.494Z,33.53
2018-05-02T15:49:16.231Z,32.84
2018-05-02T15:51:41.950Z,33.51
2018-05-02T15:54:07.512Z,33.03
2018-05-02T15:56:33.075Z,33.01
2018-05-02T15:58:58.803Z,32.82
2018-05-02T16:01:24.356Z,32.60
2018-05-02T16:03:50.223Z,33.05
2018-05-02T16:06:16.055Z,32.85
2018-05-02T16:08:41.601Z,33.13
2018-05-02T16:11:07.983Z,32.64
2018-05-02T16:13:33.793Z,33.17
2018-05-02T16:15:59.365Z,33.39
2018-05-02T16:18:24.937Z,34.25
2018-05-02T16:20:51.693Z,34.15
2018-05-02T16:23:17.263Z,34.34
2018-05-02T16:25:42.925Z,34.29
2018-05-02T16:28:08.909Z,33.89
2018-05-02T16:30:34.469Z,34.50
2018-05-02T16:33:00.188Z,34.85
2018-05-02T16:35:25.725Z,35.19
2018-05-02T16:37:51.680Z,34.79
2018-05-02T16:40:17.305Z,34.82
2018-05-02T16:42:43.042Z,35.00
2018-05-02T16:45:08.696Z,34.95
2018-05-02T16:47:34.222Z,35.04
2018-05-02T16:49:59.940Z,35.25
2018-05-02T16:52:25.521Z,35.08
2018-05-02T16:54:51.090Z,35.35
2018-05-02T16:57:17.067Z,35.39
2018-05-02T16:59:42.639Z,35.31
2018-05-02T17:02:08.424Z,35.41
2018-05-02T17:04:34.255Z,35.48
2018-05-02T17:06:59.855Z,35.72
2018-05-02T17:09:25.460Z,36.27
2018-05-02T17:11:51.328Z,36.33
2018-05-02T17:14:16.985Z,36.35
2018-05-02T17:16:42.662Z,36.31
2018-05-02T17:19:08.511Z,36.68
2018-05-02T17:21:34.081Z,36.35
2018-05-02T17:23:59.654Z,36.67
2018-05-02T17:26:25.372Z,36.83
2018-05-02T17:28:50.987Z,36.44
2018-05-02T17:31:16.819Z,36.64
2018-05-02T17:33:42.674Z,37.04
2018-05-02T17:36:08.294Z,36.94
2018-05-02T17:38:34.177Z,36.87
2018-05-02T17:40:59.993Z,37.12
2018-05-02T17:43:25.520Z,36.87
2018-05-02T17:45:52.595Z,36.72
2018-05-02T17:48:18.179Z,37.41
2018-05-02T17:50:44.340Z,37.28
2018-05-02T17:53:09.934Z,37.43
2018-05-02T17:55:35.683Z,37.57
2018-05-02T17:58:01.771Z,38.00
2018-05-02T18:00:27.396Z,37.81
2018-05-02T18:02:52.957Z,38.15
2018-05-02T18:05:18.731Z,38.14
2018-05-02T18:07:44.324Z,37.81
2018-05-02T18:10:09.902Z,37.79
2018-05-02T18:12:35.769Z,37.69
2018-05-02T18:15:01.431Z,37.83
2018-05-02T18:17:27.041Z,38.27
2018-05-02T18:19:52.749Z,37.61
2018-05-02T18:22:18.350Z,37.80
2018-05-02T18:24:43.978Z,38.18
2018-05-02T18:27:09.785Z,38.24
2018-05-02T18:29:35.405Z,38.35
2018-05-02T18:32:00.983Z,38.11
2018-05-02T18:34:27.118Z,38.38
2018-05-02T18:36:52.669Z,38.11
2018-05-02T18:39:18.336Z,38.28
2018-05-02T18:41:44.343Z,38.47
2018-05-02T18:44:09.973Z,38.56
2018-05-02T18:46:35.564Z,38.54
2018-05-02T18:49:02.069Z,38.94
2018-05-02T18:51:28.357Z,39.27
2018-05-02T18:53:53.935Z,38.89
2018-05-02T18:56:20.436Z,39.16
2018-05-02T18:58:46.071Z,39.30
2018-05-02T19:02:44.608Z,39.23
2018-05-02T19:05:10.245Z,36.99
2018-05-02T19:07:35.850Z,38.02
2018-05-02T19:10:01.974Z,38.97
2018-05-02T19:12:27.591Z,39.18
2018-05-02T19:14:53.227Z,39.56
2018-05-02T19:17:19.601Z,39.17
2018-05-02T19:20:04.109Z,39.35
2018-05-02T19:22:30.472Z,39.04
2018-05-02T19:25:15.693Z,38.78
2018-05-02T19:27:41.648Z,39.32
2018-05-02T19:30:07.227Z,39.38
2018-05-02T19:32:52.288Z,38.60
2018-05-02T19:35:17.898Z,38.91
2018-05-02T19:37:43.512Z,38.90
2018-05-02T19:40:28.106Z,38.87
2018-05-02T19:43:12.662Z,39.20
2018-05-02T19:45:39.825Z,39.58
2018-05-02T19:48:05.407Z,39.39
2018-05-02T19:50:31.052Z,39.14
2018-05-02T19:52:57.125Z,38.97
2018-05-02T19:55:22.707Z,39.12
2018-05-02T19:57:48.606Z,39.08
2018-05-02T20:00:33.719Z,39.54
2018-05-02T20:03:02.318Z,39.05
2018-05-02T20:05:27.954Z,39.18
2018-05-02T20:07:53.967Z,38.78
2018-05-02T20:10:38.118Z,39.60
2018-05-02T20:13:23.135Z,38.98
2018-05-02T20:15:48.707Z,39.82
2018-05-02T20:18:14.290Z,39.79
2018-05-02T20:20:40.277Z,39.94
2018-05-02T20:23:06.390Z,39.93
2018-05-02T20:25:32.015Z,39.76
2018-05-02T20:27:58.321Z,39.84
2018-05-02T20:30:24.612Z,38.40
2018-05-02T20:35:22.305Z,39.59
2018-05-02T20:37:48.403Z,42.84
2018-05-02T20:40:13.968Z,42.30
2018-05-02T20:42:39.605Z,42.27
2018-05-02T20:45:05.321Z,42.96
2018-05-02T20:47:30.938Z,42.72
2018-05-02T20:49:56.470Z,43.56
2018-05-02T20:52:22.178Z,45.01
2018-05-02T20:54:47.840Z,45.57
2018-05-02T20:57:13.377Z,45.22
2018-05-02T20:59:39.488Z,45.93
2018-05-02T21:02:05.056Z,45.34
2018-05-02T21:04:30.633Z,45.51
2018-05-02T21:06:56.342Z,45.27
2018-05-02T21:09:21.982Z,44.67
2018-05-02T21:11:47.557Z,44.92
2018-05-02T21:14:13.257Z,45.09
2018-05-02T21:16:38.893Z,45.04
2018-05-02T21:19:04.484Z,44.26
2018-05-02T21:21:30.246Z,46.05
2018-05-02T21:23:57.100Z,44.79
2018-05-02T21:26:22.760Z,46.21
2018-05-02T21:28:48.430Z,46.72
2018-05-02T21:31:14.206Z,46.77
2018-05-02T21:33:39.960Z,46.70
2018-05-02T21:36:05.524Z,47.19
2018-05-02T21:38:31.305Z,47.82
2018-05-02T21:40:56.871Z,48.31
2018-05-02T21:43:22.438Z,48.82
2018-05-02T21:45:48.202Z,49.17
2018-05-02T21:48:13.824Z,49.95
2018-05-02T21:50:39.463Z,50.66
2018-05-02T21:53:05.303Z,51.54
2018-05-02T21:55:30.872Z,52.43
2018-05-02T21:57:56.619Z,53.11
2018-05-02T22:00:22.328Z,53.10
2018-05-02T22:02:47.903Z,52.13
2018-05-02T22:05:13.631Z,52.60
2018-05-02T22:07:39.335Z,52.52
2018-05-02T22:10:04.957Z,53.53
2018-05-02T22:12:30.729Z,53.95
2018-05-02T22:14:56.515Z,53.63
2018-05-02T22:17:22.057Z,53.85
2018-05-02T22:19:47.636Z,53.76
2018-05-02T22:22:13.465Z,53.59
2018-05-02T22:24:39.062Z,53.19
2018-05-02T22:27:04.649Z,54.00
2018-05-02T22:29:30.369Z,54.44
2018-05-02T22:31:55.941Z,54.85
2018-05-02T22:34:21.781Z,54.57
2018-05-02T22:36:47.355Z,55.64
2018-05-02T22:39:13.171Z,56.31
2018-05-02T22:41:38.928Z,56.78
2018-05-02T22:44:04.497Z,57.20
2018-05-02T22:46:30.167Z,57.38
2018-05-02T22:48:55.969Z,57.20
2018-05-02T22:51:21.641Z,57.15
2018-05-02T22:53:47.215Z,57.15
2018-05-02T22:56:12.982Z,57.33
2018-05-02T22:58:38.591Z,57.13
2018-05-02T23:01:04.398Z,57.08
2018-05-02T23:03:30.159Z,57.08
2018-05-02T23:05:56.258Z,56.95
2018-05-02T23:08:21.835Z,56.73
2018-05-02T23:10:47.632Z,56.59
2018-05-02T23:13:13.237Z,56.42
2018-05-02T23:15:38.804Z,56.43
2018-05-02T23:18:04.613Z,56.25
2018-05-02T23:20:30.332Z,56.16
2018-05-02T23:22:55.953Z,55.35
2018-05-02T23:25:21.736Z,55.56
2018-05-02T23:27:47.298Z,55.94
2018-05-02T23:30:13.022Z,55.49
2018-05-02T23:32:38.795Z,55.89
2018-05-02T23:35:04.359Z,55.89
2018-05-02T23:37:29.942Z,55.73
2018-05-02T23:39:55.689Z,55.86
2018-05-02T23:42:21.316Z,56.00
2018-05-02T23:44:46.984Z,56.25
2018-05-02T23:47:12.779Z,56.41
2018-05-02T23:49:38.625Z,56.67
2018-05-02T23:52:04.274Z,56.89
2018-05-02T23:54:30.250Z,56.04
2018-05-02T23:56:55.809Z,56.88
2018-05-02T23:59:21.520Z,56.82
